Meteo Giornale » Osservazioni meteo Egitto » Cairo

ore: 18:00 - Osservazioni Meteo Cairo
Lat. 30° 8' N Lon. 31° 24' E Alt. 64 metri s.l.m.

sereno Africa/Cairo

37 °C

Sereno

Temp. 24 Ore

26 °C

38 °C

Nord-Ovest

9.3 Km/h

Dew point 19 °C

Umidità 35 %

Visibilità  10 Km

Il sole sorge alle ore 05:10

Il sole tramonta alle ore 18:50

Data e Ora Cielo e Fenomeni T °C DP °C Um. % Pres. hPa Vis. km Vento km/h
Oggi h: 18:00 sereno Sereno 37 19 35 1003 10 NO 9.3
Oggi h: 17:30 sereno Sereno 37 18 32 1003 10 N/NO 13
Oggi h: 17:00 sereno Sereno 37 18 32 1003 10 N/NO 13
Oggi h: 16:30 sereno Sereno 37 19 35 1003 10 N/NO 13
Oggi h: 16:00 sereno Sereno 37 19 35 1003 10 N/NO 13
Oggi h: 15:30 sereno Sereno 38 19 33 1003 10 O/NO 7.4
Oggi h: 15:00 sereno Sereno 37 19 35 1003 10 O/NO 13
Oggi h: 14:30 sereno Sereno 37 18 32 1004 10 O 11.1
Oggi h: 14:00 sereno Sereno 36 19 36 1004 10 O/NO 11.1
Oggi h: 13:30 sereno Sereno 36 17 32 1004 10 O 13
Oggi h: 13:00 sereno Sereno 35 20 41 1005 10 O/NO 11.1
Oggi h: 12:30 sereno Sereno 35 20 41 1005 10 O/NO 11.1
Oggi h: 12:00 sereno Sereno 34 22 49 1005 10 O/NO 11.1
Oggi h: 11:30 sereno Sereno 33 21 49 1005 10 NO 13
Oggi h: 11:00 sereno Sereno 32 22 55 1006 10 O/NO 13
Oggi h: 10:30 nuvoloso Nuvoloso 30 23 66 1006 6 O/NO 11.1
Oggi h: 10:00 nuvoloso Nuvoloso 30 23 66 1006 6 O/NO 11.1
Oggi h: 09:30 nuvoloso Nuvoloso 30 23 66 1006 6 O/NO 7.4
Oggi h: 09:00 nuvoloso Nuvoloso 29 23 70 1006 6 O/NO 11.1
Oggi h: 08:30 nuvoloso Nuvoloso 29 23 70 1006 6 O/NO 11.1
Oggi h: 08:00 nuvoloso Nuvoloso 28 23 74 1006 6 O/NO 11.1
Oggi h: 07:30 foschia Foschia 27 23 78 1006 4 O 7.4
Oggi h: 06:30 foschia Foschia 27 24 83 1006 4 O/NO 9.3
Oggi h: 06:00 foschia Foschia 26 24 88 1006 4 O/NO 9.3
Oggi h: 05:30 sereno Sereno 27 24 83 1005 6 O/NO 7.4
Oggi h: 05:00 sereno Sereno 27 23 78 1005 6 NO 9.3
Oggi h: 04:30 sereno Sereno 27 24 83 1005 6 NO 9.3
Oggi h: 04:00 sereno Sereno 27 23 78 1005 6 NO 9.3
Oggi h: 03:30 sereno Sereno 28 22 69 1005 6 NO 11.1
Oggi h: 03:00 sereno Sereno 28 21 65 1006 6 NO 7.4
Oggi h: 02:30 sereno Sereno 29 21 62 1006 6 NO 7.4
Oggi h: 02:00 sereno Sereno 29 21 62 1006 6 N 5.5
Oggi h: 01:30 sereno Sereno 29 21 62 1006 10 NO 7.4
Oggi h: 01:00 sereno Sereno 30 20 55 1006 10 NO 7.4
Oggi h: 00:30 sereno Sereno 30 20 55 1006 10 O/NO 7.4
Ieri h: 23:30 sereno Sereno 30 20 55 1006 10 O/NO 7.4
Ieri h: 23:00 sereno Sereno 31 20 52 1007 10 O/NO 7.4
Ieri h: 22:30 sereno Sereno 31 21 55 1007 10 N 5.5
Ieri h: 22:00 sereno Sereno 31 21 55 1007 10 N 9.3
Ieri h: 21:30 sereno Sereno 31 22 58 1007 10 N/NO 13
Ieri h: 21:00 sereno Sereno 32 21 52 1007 10 N 14.8
Ieri h: 20:30 sereno Sereno 32 22 55 1006 10 N/NO 14.8
Ieri h: 20:00 sereno Sereno 33 22 52 1006 10 N 18.5
Ieri h: 19:30 sereno Sereno 34 19 41 1006 10 N/NO 16.7
Ieri h: 19:00 sereno Sereno 35 17 34 1005 10 NO 16.7